createdAt,value
2022-08-26T00:00:12.714Z,8.37
2022-08-26T00:07:43.413Z,5.93
2022-08-26T00:10:12.836Z,10.1
2022-08-26T00:12:42.857Z,8.48
2022-08-26T00:15:12.886Z,6.58
2022-08-26T00:17:42.905Z,5.34
2022-08-26T00:20:12.938Z,6.29
2022-08-26T00:22:42.959Z,6.34
2022-08-26T00:27:43.000Z,11.77
2022-08-26T00:30:13.076Z,10.72
2022-08-26T00:32:43.970Z,9.07
2022-08-26T00:35:13.058Z,7.16
2022-08-26T00:42:45.863Z,5.64
2022-08-26T00:45:13.166Z,7.34
2022-08-26T00:47:43.207Z,6.01
2022-08-26T00:50:13.211Z,9.49
2022-08-26T00:52:43.981Z,7.22
2022-08-26T00:55:16.324Z,5.82
2022-08-26T00:57:43.273Z,5.16
2022-08-26T01:00:13.325Z,4.27
2022-08-26T01:02:46.901Z,5.73
2022-08-26T01:05:13.364Z,5.71
2022-08-26T01:07:43.391Z,5.33
2022-08-26T01:10:13.403Z,5.46
2022-08-26T01:12:43.424Z,4.5
2022-08-26T01:15:13.453Z,6.71
2022-08-26T01:17:43.836Z,4.81
2022-08-26T01:20:13.528Z,4.56
2022-08-26T01:22:43.688Z,5.86
2022-08-26T01:25:13.552Z,5.24
2022-08-26T01:27:43.570Z,5.37
2022-08-26T01:30:13.609Z,4.85
2022-08-26T01:32:43.618Z,5.88
2022-08-26T01:35:13.654Z,5.51
2022-08-26T01:40:13.788Z,7.27
2022-08-26T01:42:43.727Z,6.81
2022-08-26T01:45:13.751Z,5.85
2022-08-26T01:47:43.760Z,5.98
2022-08-26T01:50:15.746Z,5.9
2022-08-26T01:52:43.828Z,5.19
2022-08-26T01:55:13.829Z,4.21
2022-08-26T01:57:43.856Z,8.78
2022-08-26T02:00:13.900Z,6.67
2022-08-26T02:02:43.904Z,5.77
2022-08-26T02:05:13.939Z,6.84
2022-08-26T02:07:43.962Z,5.52
2022-08-26T02:10:13.975Z,4.51
2022-08-26T02:12:43.997Z,3.79
2022-08-26T02:15:14.031Z,4.14
2022-08-26T02:17:44.063Z,4.73
2022-08-26T02:20:15.056Z,4.28
2022-08-26T02:22:45.027Z,3.6
2022-08-26T02:25:14.131Z,5.05
2022-08-26T02:27:44.179Z,5.4
2022-08-26T02:30:14.177Z,4.35
2022-08-26T02:32:44.224Z,5.8
2022-08-26T02:35:18.159Z,4.98
2022-08-26T02:37:44.251Z,9.67
2022-08-26T02:40:14.350Z,8.33
2022-08-26T02:42:44.304Z,6.87
2022-08-26T02:45:14.333Z,4.99
2022-08-26T02:50:14.376Z,3.66
2022-08-26T02:52:44.405Z,5.76
2022-08-26T02:55:14.430Z,4.44
2022-08-26T03:00:14.478Z,5.69
2022-08-26T03:02:44.496Z,4.21
2022-08-26T03:05:14.517Z,5.02
2022-08-26T03:07:44.527Z,4.58
2022-08-26T03:10:14.568Z,3.53
2022-08-26T03:12:44.583Z,3.13
2022-08-26T03:15:15.921Z,3.14
2022-08-26T03:17:44.632Z,4.14
2022-08-26T03:20:15.586Z,2.92
2022-08-26T03:22:44.676Z,5
2022-08-26T03:27:44.725Z,6.04
2022-08-26T03:30:14.765Z,4.22
2022-08-26T03:32:44.767Z,2.46
2022-08-26T03:35:14.789Z,3.08
2022-08-26T03:37:44.810Z,2.66
2022-08-26T03:40:14.923Z,3.92
2022-08-26T03:42:45.408Z,2.85
2022-08-26T03:45:14.907Z,3.17
2022-08-26T03:47:44.926Z,3.08
2022-08-26T03:50:14.936Z,5.66
2022-08-26T03:52:44.971Z,3.76
2022-08-26T03:55:14.995Z,4.46
2022-08-26T03:57:45.041Z,3.41
2022-08-26T04:00:15.047Z,2.97
2022-08-26T04:05:15.086Z,2.58
2022-08-26T04:07:45.121Z,3.45
2022-08-26T04:10:15.130Z,3.86
2022-08-26T04:12:45.164Z,3.67
2022-08-26T04:17:45.195Z,3.1
2022-08-26T04:20:16.178Z,3.84
2022-08-26T04:22:45.246Z,2.66
2022-08-26T04:25:15.306Z,2.3
2022-08-26T04:27:45.309Z,2.13
2022-08-26T04:30:15.324Z,1.83
2022-08-26T04:32:45.350Z,1.91
2022-08-26T04:35:15.365Z,3.37
2022-08-26T04:37:45.387Z,5.49
2022-08-26T04:42:45.448Z,3.6
2022-08-26T04:45:15.481Z,2.3
2022-08-26T04:47:45.506Z,3.9
2022-08-26T04:50:15.545Z,2.79
2022-08-26T04:52:45.552Z,4.25
2022-08-26T04:55:15.564Z,3.29
2022-08-26T04:57:45.598Z,4.21
2022-08-26T05:00:15.605Z,2.56
2022-08-26T05:05:15.665Z,2.68
2022-08-26T05:07:45.692Z,2.75
2022-08-26T05:10:15.710Z,2.61
2022-08-26T05:12:45.730Z,1.85
2022-08-26T05:15:15.770Z,1.71
2022-08-26T05:17:45.779Z,1.58
2022-08-26T05:20:15.815Z,2.93
2022-08-26T05:22:45.836Z,2.67
2022-08-26T05:25:15.866Z,3.79
2022-08-26T05:27:45.898Z,2.67
2022-08-26T05:32:45.928Z,2.36
2022-08-26T05:35:15.999Z,2.2
2022-08-26T05:37:45.959Z,2.94
2022-08-26T05:40:16.006Z,2.79
2022-08-26T05:42:46.047Z,2
2022-08-26T05:45:16.046Z,2.12
2022-08-26T05:47:46.076Z,4.08
2022-08-26T05:52:46.121Z,4.17
2022-08-26T05:55:16.157Z,2.92
2022-08-26T05:57:46.202Z,3.17
2022-08-26T06:00:16.196Z,3.03
2022-08-26T06:02:48.425Z,2.68
2022-08-26T06:07:46.270Z,5.6
2022-08-26T06:10:31.619Z,5.04
2022-08-26T06:12:46.299Z,4.02
2022-08-26T06:15:16.326Z,4.38
2022-08-26T06:17:46.454Z,4.73
2022-08-26T06:20:16.385Z,4.36
2022-08-26T06:22:46.400Z,3.19
2022-08-26T06:25:16.430Z,3.19
2022-08-26T06:27:46.449Z,3.5
2022-08-26T06:30:16.473Z,3.99
2022-08-26T06:32:46.484Z,3.68
2022-08-26T06:35:16.534Z,2.62
2022-08-26T06:37:46.545Z,4.93
2022-08-26T06:40:16.645Z,4.58
2022-08-26T06:42:46.599Z,3.91
2022-08-26T06:45:16.621Z,3.48
2022-08-26T06:47:46.674Z,2.89
2022-08-26T06:50:16.684Z,2.73
2022-08-26T06:52:46.682Z,2.56
2022-08-26T06:55:16.716Z,1.55
2022-08-26T06:57:46.720Z,1.79
2022-08-26T07:00:16.762Z,1.37
2022-08-26T07:02:46.990Z,1.11
2022-08-26T07:10:16.851Z,2.59
2022-08-26T07:12:47.269Z,2.58
2022-08-26T07:15:17.031Z,3.71
2022-08-26T07:17:46.922Z,3.73
2022-08-26T07:20:16.957Z,5.64
2022-08-26T07:22:46.963Z,4.19
2022-08-26T07:25:17.164Z,6.47
2022-08-26T07:27:47.006Z,5.54
2022-08-26T07:30:17.043Z,4.21
2022-08-26T07:32:47.085Z,3
2022-08-26T07:35:17.095Z,2.3
2022-08-26T07:40:17.211Z,3.35
2022-08-26T07:45:17.197Z,5.12
2022-08-26T07:47:47.209Z,3.85
2022-08-26T07:50:17.244Z,2.92
2022-08-26T07:55:17.279Z,2.25
2022-08-26T07:57:47.303Z,3.51
2022-08-26T08:00:17.348Z,2.84
2022-08-26T08:02:47.365Z,3.05
2022-08-26T08:10:17.426Z,4.26
2022-08-26T08:12:47.442Z,3.51
2022-08-26T08:15:17.471Z,2.57
2022-08-26T08:17:47.507Z,3.38
2022-08-26T08:20:17.526Z,4.45
2022-08-26T08:22:47.553Z,2.92
2022-08-26T08:25:17.562Z,2.92
2022-08-26T08:30:20.812Z,2.54
2022-08-26T08:32:47.627Z,2.1
2022-08-26T08:35:17.679Z,1.7
2022-08-26T08:37:47.683Z,3
2022-08-26T08:42:47.755Z,2.01
2022-08-26T08:45:18.429Z,1.91
2022-08-26T08:47:47.786Z,3.2
2022-08-26T08:50:17.841Z,2.95
2022-08-26T08:55:18.729Z,2.22
2022-08-26T08:57:47.877Z,1.71
2022-08-26T09:00:18.006Z,2.06
2022-08-26T09:02:47.985Z,3.72
2022-08-26T09:05:17.970Z,2.61
2022-08-26T09:10:18.032Z,1.8
2022-08-26T09:12:48.065Z,4.21
2022-08-26T09:15:18.055Z,5.02
2022-08-26T09:17:48.066Z,3.88
2022-08-26T09:20:18.186Z,3.4
2022-08-26T09:22:48.991Z,3.2
2022-08-26T09:25:18.673Z,3.45
2022-08-26T09:27:50.269Z,2.99
2022-08-26T09:30:18.282Z,3.64
2022-08-26T09:32:55.989Z,6.4
2022-08-26T09:35:18.225Z,6.83
2022-08-26T09:40:18.471Z,3.48
2022-08-26T09:42:48.322Z,3.65
2022-08-26T09:45:18.347Z,3.04
2022-08-26T09:47:48.356Z,3.49
2022-08-26T09:50:18.401Z,2.66
2022-08-26T09:55:18.417Z,3
2022-08-26T09:57:48.447Z,2.75
2022-08-26T10:00:18.475Z,2.02
2022-08-26T10:05:18.534Z,2.29
2022-08-26T10:07:48.540Z,2.13
2022-08-26T10:10:18.565Z,2.28
2022-08-26T10:12:48.581Z,5.4
2022-08-26T10:15:18.614Z,6.22
2022-08-26T10:17:48.651Z,4.83
2022-08-26T10:20:23.491Z,2.86
2022-08-26T10:22:48.801Z,2.69
2022-08-26T10:25:18.722Z,2.89
2022-08-26T10:27:53.393Z,5.62
2022-08-26T10:30:18.752Z,3.69
2022-08-26T10:32:48.789Z,2.6
2022-08-26T10:35:18.793Z,2.25
2022-08-26T10:37:48.899Z,3.89
2022-08-26T10:40:18.934Z,2.63
2022-08-26T10:42:48.875Z,5.2
2022-08-26T10:45:18.891Z,3.29
2022-08-26T10:47:48.912Z,2.61
2022-08-26T10:50:19.041Z,1.84
2022-08-26T10:52:48.961Z,2.99
2022-08-26T10:55:18.984Z,3.06
2022-08-26T10:57:49.204Z,2.96
2022-08-26T11:00:19.048Z,3
2022-08-26T11:02:49.066Z,2.53
2022-08-26T11:05:19.091Z,2.61
2022-08-26T11:07:49.116Z,4.49
2022-08-26T11:10:19.146Z,3.19
2022-08-26T11:12:49.604Z,2.93
2022-08-26T11:15:19.194Z,5.51
2022-08-26T11:17:49.214Z,3.47
2022-08-26T11:20:19.265Z,2.61
2022-08-26T11:22:49.248Z,2.72
2022-08-26T11:25:19.281Z,2
2022-08-26T11:27:49.308Z,2.53
2022-08-26T11:30:19.343Z,1.82
2022-08-26T11:32:49.357Z,2.48
2022-08-26T11:35:19.372Z,4.26
2022-08-26T11:37:49.390Z,2.93
2022-08-26T11:40:19.500Z,1.97
2022-08-26T11:42:49.443Z,2.96
2022-08-26T11:45:19.464Z,1.91
2022-08-26T11:50:19.563Z,2.49
2022-08-26T11:52:49.540Z,1.65
2022-08-26T11:55:20.218Z,1.36
2022-08-26T11:57:49.594Z,1.78
2022-08-26T12:00:22.339Z,2.69
2022-08-26T12:02:49.679Z,2.08
2022-08-26T12:05:19.666Z,1.67
2022-08-26T12:07:49.675Z,1.49
2022-08-26T12:10:19.710Z,1.58
2022-08-26T12:12:49.754Z,1.44
2022-08-26T12:15:19.744Z,1.82
2022-08-26T12:17:53.548Z,1.55
2022-08-26T12:20:19.791Z,1.22
2022-08-26T12:22:49.832Z,1.81
2022-08-26T12:25:19.861Z,1.66
2022-08-26T12:27:53.650Z,2.39
2022-08-26T12:30:19.917Z,4.86
2022-08-26T12:32:57.697Z,3.44
2022-08-26T12:35:19.951Z,2.46
2022-08-26T12:37:50.011Z,4.26
2022-08-26T12:42:50.056Z,5.55
2022-08-26T12:45:20.084Z,7.16
2022-08-26T12:47:50.107Z,4.71
2022-08-26T12:50:20.109Z,3.05
2022-08-26T12:52:50.175Z,3.06
2022-08-26T12:55:20.148Z,2.92
2022-08-26T12:57:50.178Z,3.63
2022-08-26T13:00:20.251Z,6.34
2022-08-26T13:02:50.206Z,3.97
2022-08-26T13:05:20.234Z,2.97
2022-08-26T13:10:20.291Z,2.7
2022-08-26T13:12:50.381Z,1.91
2022-08-26T13:15:20.329Z,1.56
2022-08-26T13:17:50.591Z,1.47
2022-08-26T13:20:20.416Z,5.04
2022-08-26T13:22:58.565Z,5.79
2022-08-26T13:25:20.470Z,6.44
2022-08-26T13:27:50.445Z,4.66
2022-08-26T13:30:20.475Z,3.52
2022-08-26T13:32:50.489Z,3.17
2022-08-26T13:35:20.529Z,2.1
2022-08-26T13:40:20.694Z,2.84
2022-08-26T13:42:50.594Z,1.6
2022-08-26T13:45:20.649Z,2.62
2022-08-26T13:47:50.677Z,1.9
2022-08-26T13:50:20.697Z,1.29
2022-08-26T13:52:50.704Z,0.95
2022-08-26T13:55:20.722Z,1.03
2022-08-26T13:57:50.771Z,0.85
2022-08-26T14:00:20.850Z,1.18
2022-08-26T14:02:50.833Z,0.99
2022-08-26T14:05:20.853Z,2.51
2022-08-26T14:07:50.896Z,1.7
2022-08-26T14:10:20.885Z,1.97
2022-08-26T14:12:50.985Z,1.38
2022-08-26T14:15:20.913Z,1.17
2022-08-26T14:17:50.979Z,1.28
2022-08-26T14:20:21.000Z,1.95
2022-08-26T14:25:21.030Z,3.17
2022-08-26T14:27:51.206Z,2.29
2022-08-26T14:30:21.068Z,3.19
2022-08-26T14:32:51.075Z,3.47
2022-08-26T14:35:21.128Z,3.89
2022-08-26T14:37:51.150Z,2.46
2022-08-26T14:40:21.233Z,2.12
2022-08-26T14:42:53.809Z,1.57
2022-08-26T14:47:51.247Z,2.27
2022-08-26T14:50:21.236Z,2.28
2022-08-26T14:52:51.307Z,2.48
2022-08-26T14:55:21.319Z,1.67
2022-08-26T14:57:51.356Z,1.14
2022-08-26T15:00:21.404Z,1.32
2022-08-26T15:02:51.575Z,1.49
2022-08-26T15:05:21.422Z,1.75
2022-08-26T15:07:51.402Z,3.8
2022-08-26T15:10:21.486Z,4.63
2022-08-26T15:12:51.461Z,2.96
2022-08-26T15:15:21.527Z,2.12
2022-08-26T15:17:51.539Z,2.88
2022-08-26T15:20:21.624Z,2.1
2022-08-26T15:22:51.561Z,2.04
2022-08-26T15:25:21.923Z,1.74
2022-08-26T15:27:51.628Z,3.33
2022-08-26T15:30:21.648Z,3.01
2022-08-26T15:35:21.695Z,1.96
2022-08-26T15:40:22.094Z,1.7
2022-08-26T15:42:54.403Z,2.84
2022-08-26T15:48:00.599Z,1.93
2022-08-26T15:50:21.842Z,2.12
2022-08-26T15:55:21.890Z,1.98
2022-08-26T15:57:51.916Z,1.58
2022-08-26T16:00:21.937Z,1.08
2022-08-26T16:02:51.960Z,2.78
2022-08-26T16:10:22.001Z,1.69
2022-08-26T16:12:52.026Z,1.7
2022-08-26T16:15:22.236Z,1.49
2022-08-26T16:20:22.134Z,3.19
2022-08-26T16:22:52.169Z,2.43
2022-08-26T16:25:22.141Z,3.03
2022-08-26T16:27:52.164Z,3.71
2022-08-26T16:30:22.216Z,3.81
2022-08-26T16:37:52.320Z,2.43
2022-08-26T16:42:52.493Z,1.69
2022-08-26T16:47:52.429Z,2.95
2022-08-26T16:50:22.606Z,1.92
2022-08-26T16:52:54.275Z,1.72
2022-08-26T16:55:22.431Z,1.97
2022-08-26T16:57:52.508Z,1.56
2022-08-26T17:00:22.613Z,1.11
2022-08-26T17:02:52.585Z,1.65
2022-08-26T17:05:22.620Z,2.05
2022-08-26T17:07:52.578Z,4.08
2022-08-26T17:10:22.788Z,3.19
2022-08-26T17:12:52.632Z,2.2
2022-08-26T17:15:22.656Z,1.91
2022-08-26T17:17:52.645Z,1.41
2022-08-26T17:20:22.661Z,3.4
2022-08-26T17:22:52.687Z,2.65
2022-08-26T17:25:22.759Z,2.02
2022-08-26T17:27:52.770Z,2.56
2022-08-26T17:30:22.746Z,2.1
2022-08-26T17:32:52.880Z,1.69
2022-08-26T17:35:22.792Z,3.72
2022-08-26T17:37:52.875Z,3.77
2022-08-26T17:40:22.908Z,2.94
2022-08-26T17:42:52.976Z,2.09
2022-08-26T17:45:22.934Z,1.65
2022-08-26T17:47:52.927Z,1.61
2022-08-26T17:50:22.955Z,2.69
2022-08-26T17:52:52.974Z,2.45
2022-08-26T17:55:22.995Z,2.81
2022-08-26T17:57:53.685Z,1.88
2022-08-26T18:00:23.125Z,1.6
2022-08-26T18:02:53.089Z,2.92
2022-08-26T18:05:23.082Z,3.21
2022-08-26T18:07:53.115Z,1.91
2022-08-26T18:10:23.139Z,3.06
2022-08-26T18:12:53.157Z,4.38
2022-08-26T18:15:23.479Z,3.6
2022-08-26T18:17:53.291Z,2.86
2022-08-26T18:20:23.224Z,2.92
2022-08-26T18:22:53.261Z,2.3
2022-08-26T18:25:23.287Z,4.36
2022-08-26T18:27:53.302Z,3.5
2022-08-26T18:30:23.400Z,2.89
2022-08-26T18:32:53.449Z,1.95
2022-08-26T18:35:23.549Z,2.22
2022-08-26T18:37:53.508Z,2.31
2022-08-26T18:40:23.550Z,3
2022-08-26T18:42:54.060Z,3.34
2022-08-26T18:45:23.475Z,5.27
2022-08-26T18:47:53.534Z,4.39
2022-08-26T18:52:53.625Z,2.58
2022-08-26T18:57:53.593Z,1.24
2022-08-26T19:02:55.829Z,3.59
2022-08-26T19:05:23.671Z,2.5
2022-08-26T19:07:53.817Z,2.56
2022-08-26T19:10:23.721Z,2.05
2022-08-26T19:15:23.783Z,1.51
2022-08-26T19:17:53.786Z,2.78
2022-08-26T19:20:23.950Z,3.45
2022-08-26T19:22:53.845Z,2.73
2022-08-26T19:25:24.009Z,1.81
2022-08-26T19:27:53.904Z,1.99
2022-08-26T19:30:23.893Z,2.38
2022-08-26T19:32:54.151Z,2.57
2022-08-26T19:35:24.020Z,3.16
2022-08-26T19:37:53.969Z,5.15
2022-08-26T19:40:24.018Z,7.51
2022-08-26T19:42:54.026Z,4.49
2022-08-26T19:45:25.046Z,4.64
2022-08-26T19:47:54.274Z,3.09
2022-08-26T19:50:24.191Z,2.41
2022-08-26T19:52:54.118Z,2.5
2022-08-26T19:55:24.867Z,2.33
2022-08-26T20:00:24.203Z,2.38
2022-08-26T20:02:54.518Z,3.15
2022-08-26T20:05:24.244Z,2.58
2022-08-26T20:07:54.260Z,2.87
2022-08-26T20:10:24.272Z,2.15
2022-08-26T20:12:54.427Z,2.62
2022-08-26T20:15:24.340Z,2.42
2022-08-26T20:17:54.351Z,3.34
2022-08-26T20:20:32.898Z,3.1
2022-08-26T20:22:54.426Z,2.16
2022-08-26T20:25:24.466Z,3.85
2022-08-26T20:27:54.472Z,3.76
2022-08-26T20:32:54.519Z,2.09
2022-08-26T20:35:24.972Z,2.06
2022-08-26T20:37:54.580Z,5.15
2022-08-26T20:42:54.628Z,3.93
2022-08-26T20:45:24.651Z,3.43
2022-08-26T20:47:54.674Z,2.93
2022-08-26T20:50:24.721Z,1.86
2022-08-26T20:52:54.721Z,2.88
2022-08-26T20:55:24.772Z,3.99
2022-08-26T20:57:54.803Z,3.81
2022-08-26T21:00:26.547Z,3.86
2022-08-26T21:02:54.853Z,3.23
2022-08-26T21:05:25.208Z,2.15
2022-08-26T21:07:54.863Z,2.3
2022-08-26T21:10:24.885Z,2.13
2022-08-26T21:12:54.920Z,1.81
2022-08-26T21:15:24.993Z,2
2022-08-26T21:17:55.001Z,4.18
2022-08-26T21:20:24.970Z,3.09
2022-08-26T21:22:54.997Z,2.02
2022-08-26T21:25:25.146Z,2.94
2022-08-26T21:30:25.042Z,2.95
2022-08-26T21:32:55.082Z,2.58
2022-08-26T21:35:25.117Z,2.19
2022-08-26T21:37:55.112Z,1.86
2022-08-26T21:42:55.193Z,2.15
2022-08-26T21:45:25.284Z,3.47
2022-08-26T21:50:25.278Z,3.95
2022-08-26T21:52:55.260Z,3
2022-08-26T21:55:25.307Z,2.43
2022-08-26T21:57:55.314Z,2.62
2022-08-26T22:00:25.357Z,2.55
2022-08-26T22:02:55.399Z,2.54
2022-08-26T22:10:25.442Z,2.31
2022-08-26T22:12:55.433Z,1.63
2022-08-26T22:15:25.491Z,1.7
2022-08-26T22:17:55.477Z,1.88
2022-08-26T22:20:25.553Z,2.29
2022-08-26T22:25:25.588Z,2.48
2022-08-26T22:27:55.570Z,2.98
2022-08-26T22:32:55.628Z,2.38
2022-08-26T22:35:29.348Z,2.05
2022-08-26T22:37:57.161Z,2.87
2022-08-26T22:40:25.745Z,2.75
2022-08-26T22:42:58.835Z,3.23
2022-08-26T22:45:25.916Z,2.3
2022-08-26T22:47:55.781Z,1.75
2022-08-26T22:50:25.803Z,1.26
2022-08-26T22:52:55.851Z,2.55
2022-08-26T22:57:55.910Z,3
2022-08-26T23:00:31.843Z,2.79
2022-08-26T23:02:55.959Z,3.28
2022-08-26T23:05:25.982Z,4.17
2022-08-26T23:07:55.971Z,4.09
2022-08-26T23:12:56.039Z,2.97
2022-08-26T23:15:26.062Z,4.6
2022-08-26T23:17:58.791Z,3.33
2022-08-26T23:20:26.107Z,3.72
2022-08-26T23:22:56.110Z,3.5
2022-08-26T23:25:26.126Z,2.83
2022-08-26T23:27:56.187Z,3.27
2022-08-26T23:30:26.176Z,4.5
2022-08-26T23:32:56.234Z,4
2022-08-26T23:35:26.228Z,4.44
2022-08-26T23:37:57.823Z,2.69
2022-08-26T23:40:26.373Z,2.7
2022-08-26T23:42:56.311Z,5.18
2022-08-26T23:45:26.393Z,4.69
2022-08-26T23:47:56.371Z,4.29
2022-08-26T23:52:56.426Z,3.39
2022-08-26T23:55:26.449Z,2.37
2022-08-26T23:57:56.440Z,5.18
